createdAt,value
2023-07-04T00:01:08.835Z,0.069
2023-07-04T00:03:09.023Z,0.068
2023-07-04T00:05:08.962Z,0.069
2023-07-04T00:07:11.046Z,0.071
2023-07-04T00:09:08.898Z,0.071
2023-07-04T00:11:08.885Z,0.073
2023-07-04T00:13:08.906Z,0.075
2023-07-04T00:15:08.818Z,0.074
2023-07-04T00:17:08.852Z,0.078
2023-07-04T00:19:08.827Z,0.080
2023-07-04T00:23:16.770Z,0.079
2023-07-04T00:25:16.944Z,0.080
2023-07-04T00:27:16.848Z,0.081
2023-07-04T00:29:16.918Z,0.082
2023-07-04T00:31:16.834Z,0.082
2023-07-04T00:33:16.797Z,0.084
2023-07-04T00:35:17.053Z,0.085
2023-07-04T00:37:16.750Z,0.085
2023-07-04T00:39:17.196Z,0.084
2023-07-04T00:41:22.469Z,0.086
2023-07-04T00:43:16.760Z,0.085
2023-07-04T00:45:16.781Z,0.086
2023-07-04T00:47:16.942Z,0.087
2023-07-04T00:49:17.613Z,0.086
2023-07-04T00:51:16.891Z,0.086
2023-07-04T00:53:17.128Z,0.084
2023-07-04T00:55:16.844Z,0.084
2023-07-04T00:57:16.881Z,0.083
2023-07-04T00:59:16.773Z,0.084
2023-07-04T01:01:16.891Z,0.085
2023-07-04T01:03:16.801Z,0.082
2023-07-04T01:05:16.906Z,0.081
2023-07-04T01:07:16.827Z,0.080
2023-07-04T01:09:16.813Z,0.082
2023-07-04T01:11:16.829Z,0.080
2023-07-04T01:13:16.969Z,0.078
2023-07-04T01:15:17.127Z,0.076
2023-07-04T01:17:17.019Z,0.073
2023-07-04T01:19:16.760Z,0.072
2023-07-04T01:21:16.781Z,0.071
2023-07-04T01:23:16.770Z,0.074
2023-07-04T01:25:16.747Z,0.072
2023-07-04T01:27:17.124Z,0.074
2023-07-04T01:29:16.848Z,0.073
2023-07-04T01:32:17.067Z,0.073
2023-07-04T01:34:21.789Z,0.071
2023-07-04T01:36:16.772Z,0.069
2023-07-04T01:38:18.216Z,0.069
2023-07-04T01:40:19.579Z,0.066
2023-07-04T01:42:16.812Z,0.065
2023-07-04T01:44:17.215Z,0.064
2023-07-04T01:46:18.556Z,0.065
2023-07-04T01:48:17.092Z,0.065
2023-07-04T01:50:16.956Z,0.066
2023-07-04T01:52:17.061Z,0.066
2023-07-04T01:54:16.801Z,0.065
2023-07-04T01:56:16.835Z,0.066
2023-07-04T01:58:16.880Z,0.066
2023-07-04T02:00:17.032Z,0.068
2023-07-04T02:02:16.922Z,0.070
2023-07-04T02:04:16.835Z,0.074
2023-07-04T02:06:16.875Z,0.073
2023-07-04T02:08:16.808Z,0.073
2023-07-04T02:10:17.043Z,0.072
2023-07-04T02:12:17.176Z,0.071
2023-07-04T02:14:16.874Z,0.073
2023-07-04T02:16:21.448Z,0.073
2023-07-04T02:18:16.797Z,0.072
2023-07-04T02:20:16.865Z,0.072
2023-07-04T02:22:16.846Z,0.073
2023-07-04T02:24:16.962Z,0.073
2023-07-04T02:26:17.304Z,0.072
2023-07-04T02:28:16.793Z,0.073
2023-07-04T02:30:16.821Z,0.070
2023-07-04T02:32:16.847Z,0.069
2023-07-04T02:34:16.832Z,0.070
2023-07-04T02:36:21.701Z,0.071
2023-07-04T02:38:16.956Z,0.072
2023-07-04T02:40:16.874Z,0.073
2023-07-04T02:42:16.934Z,0.074
2023-07-04T02:44:17.032Z,0.076
2023-07-04T02:46:16.864Z,0.078
2023-07-04T02:48:16.931Z,0.075
2023-07-04T02:50:21.712Z,0.075
2023-07-04T02:52:16.903Z,0.076
2023-07-04T02:54:16.925Z,0.076
2023-07-04T02:56:16.903Z,0.075
2023-07-04T02:58:16.850Z,0.074
2023-07-04T03:00:16.987Z,0.072
2023-07-04T03:02:17.024Z,0.073
2023-07-04T03:04:16.946Z,0.072
2023-07-04T03:06:17.103Z,0.076
2023-07-04T03:08:16.857Z,0.075
2023-07-04T03:10:16.934Z,0.077
2023-07-04T03:12:16.918Z,0.078
2023-07-04T03:14:16.931Z,0.076
2023-07-04T03:16:17.082Z,0.079
2023-07-04T03:18:17.171Z,0.081
2023-07-04T03:20:16.940Z,0.081
2023-07-04T03:22:17.597Z,0.081
2023-07-04T03:24:16.884Z,0.081
2023-07-04T03:26:16.842Z,0.079
2023-07-04T03:28:16.961Z,0.081
2023-07-04T03:30:17.079Z,0.083
2023-07-04T03:32:16.993Z,0.083
2023-07-04T03:34:16.933Z,0.083
2023-07-04T03:36:16.906Z,0.083
2023-07-04T03:38:16.999Z,0.081
2023-07-04T03:40:17.000Z,0.080
2023-07-04T03:42:16.884Z,0.079
2023-07-04T03:44:16.896Z,0.076
2023-07-04T03:46:16.862Z,0.075
2023-07-04T03:48:17.000Z,0.078
2023-07-04T03:50:16.910Z,0.077
2023-07-04T03:52:16.987Z,0.077
2023-07-04T03:54:16.925Z,0.078
2023-07-04T03:56:16.895Z,0.080
2023-07-04T03:58:17.160Z,0.079
2023-07-04T04:00:16.972Z,0.082
2023-07-04T04:02:17.055Z,0.081
2023-07-04T04:04:17.030Z,0.081
2023-07-04T04:06:16.984Z,0.079
2023-07-04T04:08:17.472Z,0.081
2023-07-04T04:10:16.994Z,0.080
2023-07-04T04:12:16.905Z,0.082
2023-07-04T04:14:19.643Z,0.085
2023-07-04T04:16:17.061Z,0.083
2023-07-04T04:18:21.793Z,0.078
2023-07-04T04:20:16.938Z,0.078
2023-07-04T04:22:16.989Z,0.077
2023-07-04T04:24:16.998Z,0.076
2023-07-04T04:26:17.311Z,0.075
2023-07-04T04:28:16.897Z,0.072
2023-07-04T04:30:17.097Z,0.071
2023-07-04T04:32:16.970Z,0.071
2023-07-04T04:34:16.929Z,0.073
2023-07-04T04:36:16.974Z,0.075
2023-07-04T04:38:17.135Z,0.076
2023-07-04T04:40:16.976Z,0.076
2023-07-04T04:42:16.946Z,0.079
2023-07-04T04:44:17.001Z,0.081
2023-07-04T04:46:17.009Z,0.082
2023-07-04T04:48:17.021Z,0.080
2023-07-04T04:50:21.167Z,0.080
2023-07-04T04:52:16.898Z,0.078
2023-07-04T04:54:17.069Z,0.077
2023-07-04T04:56:17.025Z,0.077
2023-07-04T04:58:16.988Z,0.077
2023-07-04T05:00:16.949Z,0.074
2023-07-04T05:02:16.955Z,0.072
2023-07-04T05:04:17.162Z,0.071
2023-07-04T05:07:16.952Z,0.069
2023-07-04T05:09:16.965Z,0.069
2023-07-04T05:11:16.987Z,0.049
2023-07-04T05:13:17.046Z,0.057
2023-07-04T05:15:16.964Z,0.073
2023-07-04T05:17:17.003Z,0.071
2023-07-04T05:19:17.013Z,0.068
2023-07-04T05:21:17.034Z,0.073
2023-07-04T05:23:21.525Z,0.070
2023-07-04T05:25:22.820Z,0.068
2023-07-04T05:27:17.024Z,0.066
2023-07-04T05:29:16.985Z,0.064
2023-07-04T05:31:16.994Z,0.065
2023-07-04T05:33:16.938Z,0.071
2023-07-04T05:35:17.104Z,0.072
2023-07-04T05:37:17.061Z,0.073
2023-07-04T05:39:17.119Z,0.071
2023-07-04T05:41:17.032Z,0.070
2023-07-04T05:43:16.979Z,0.069
2023-07-04T05:45:17.006Z,0.067
2023-07-04T05:47:17.260Z,0.066
2023-07-04T05:49:21.930Z,0.066
2023-07-04T05:51:17.039Z,0.067
2023-07-04T05:53:17.027Z,0.068
2023-07-04T05:55:17.018Z,0.070
2023-07-04T05:57:16.989Z,0.074
2023-07-04T05:59:17.050Z,0.076
2023-07-04T06:01:17.023Z,0.076
2023-07-04T06:03:17.117Z,0.077
2023-07-04T06:05:17.203Z,0.079
2023-07-04T06:07:17.134Z,0.079
2023-07-04T06:09:16.973Z,0.079
2023-07-04T06:11:17.039Z,0.080
2023-07-04T06:13:19.172Z,0.077
2023-07-04T06:15:17.157Z,0.075
2023-07-04T06:17:17.111Z,0.075
2023-07-04T06:19:17.148Z,0.074
2023-07-04T06:21:18.563Z,0.073
2023-07-04T06:23:17.932Z,0.074
2023-07-04T06:27:38.419Z,0.077
2023-07-04T06:29:38.322Z,0.078
2023-07-04T06:30:41.165Z,0.078
2023-07-04T06:33:40.488Z,0.077
2023-07-04T06:35:38.221Z,0.078
2023-07-04T06:37:38.522Z,0.076
2023-07-04T06:39:38.405Z,0.078
2023-07-04T06:41:38.362Z,0.078
2023-07-04T06:43:38.435Z,0.081
2023-07-04T06:45:38.410Z,0.082
2023-07-04T06:47:41.207Z,0.080
2023-07-04T06:49:38.298Z,0.082
2023-07-04T06:51:38.346Z,0.080
2023-07-04T06:53:38.450Z,0.081
2023-07-04T06:55:39.308Z,0.080
2023-07-04T06:57:38.372Z,0.077
2023-07-04T06:59:38.399Z,0.077
2023-07-04T07:01:38.652Z,0.077
2023-07-04T07:03:38.447Z,0.075
2023-07-04T07:05:38.265Z,0.073
2023-07-04T07:07:38.341Z,0.071
2023-07-04T07:09:43.174Z,0.071
2023-07-04T07:11:38.301Z,0.071
2023-07-04T07:13:38.381Z,0.074
2023-07-04T07:15:43.493Z,0.077
2023-07-04T07:17:38.781Z,0.077
2023-07-04T07:19:40.445Z,0.078
2023-07-04T07:21:38.262Z,0.079
2023-07-04T07:23:39.012Z,0.079
2023-07-04T07:25:38.293Z,0.081
2023-07-04T07:27:38.308Z,0.078
2023-07-04T07:29:38.455Z,0.078
2023-07-04T07:31:38.363Z,0.077
2023-07-04T07:33:38.349Z,0.076
2023-07-04T07:35:38.354Z,0.075
2023-07-04T07:37:38.630Z,0.076
2023-07-04T07:39:38.477Z,0.075
2023-07-04T07:41:40.397Z,0.075
2023-07-04T07:43:38.341Z,0.076
2023-07-04T07:45:38.303Z,0.076
2023-07-04T07:47:43.497Z,0.077
2023-07-04T07:49:38.300Z,0.076
2023-07-04T07:51:38.336Z,0.077
2023-07-04T07:53:38.443Z,0.077
2023-07-04T07:55:41.228Z,0.077
2023-07-04T07:57:38.397Z,0.078
2023-07-04T07:59:38.575Z,0.076
2023-07-04T08:01:38.419Z,0.076
2023-07-04T08:03:38.398Z,0.078
2023-07-04T08:05:38.385Z,0.080
2023-07-04T08:07:38.438Z,0.083
2023-07-04T08:09:38.412Z,0.081
2023-07-04T08:11:38.395Z,0.081
2023-07-04T08:13:38.478Z,0.080
2023-07-04T08:15:38.942Z,0.079
2023-07-04T08:17:38.369Z,0.079
2023-07-04T08:19:38.444Z,0.081
2023-07-04T08:21:43.277Z,0.079
2023-07-04T08:23:38.365Z,0.079
2023-07-04T08:25:44.636Z,0.076
2023-07-04T08:27:38.362Z,0.075
2023-07-04T08:29:38.418Z,0.075
2023-07-04T08:31:38.448Z,0.075
2023-07-04T08:33:41.335Z,0.075
2023-07-04T08:35:38.408Z,0.075
2023-07-04T08:37:38.441Z,0.076
2023-07-04T08:39:38.357Z,0.076
2023-07-04T08:41:38.448Z,0.077
2023-07-04T08:43:38.387Z,0.074
2023-07-04T08:45:38.406Z,0.074
2023-07-04T08:47:38.462Z,0.073
2023-07-04T08:49:38.396Z,0.075
2023-07-04T08:51:39.655Z,0.075
2023-07-04T08:53:38.406Z,0.074
2023-07-04T08:55:38.420Z,0.072
2023-07-04T08:57:38.508Z,0.068
2023-07-04T08:59:38.408Z,0.067
2023-07-04T09:01:38.543Z,0.067
2023-07-04T09:03:39.837Z,0.066
2023-07-04T09:05:38.400Z,0.066
2023-07-04T09:07:38.377Z,0.066
2023-07-04T09:09:38.924Z,0.067
2023-07-04T09:11:39.498Z,0.069
2023-07-04T09:13:38.567Z,0.070
2023-07-04T09:15:38.398Z,0.069
2023-07-04T09:17:41.146Z,0.071
2023-07-04T09:19:38.386Z,0.071
2023-07-04T09:21:38.424Z,0.072
2023-07-04T09:23:38.467Z,0.071
2023-07-04T09:25:38.413Z,0.071
2023-07-04T09:27:38.420Z,0.072
2023-07-04T09:29:38.571Z,0.071
2023-07-04T09:31:39.530Z,0.070
2023-07-04T09:33:38.528Z,0.070
2023-07-04T09:35:38.418Z,0.069
2023-07-04T09:37:38.457Z,0.068
2023-07-04T09:39:38.536Z,0.068
2023-07-04T09:41:54.468Z,0.068
2023-07-04T09:43:38.451Z,0.068
2023-07-04T09:45:42.612Z,0.066
2023-07-04T09:47:38.558Z,0.067
2023-07-04T09:49:38.470Z,0.065
2023-07-04T09:51:38.512Z,0.065
2023-07-04T09:53:38.622Z,0.067
2023-07-04T09:55:38.492Z,0.067
2023-07-04T09:57:38.579Z,0.069
2023-07-04T09:59:38.473Z,0.070
2023-07-04T10:01:38.514Z,0.071
2023-07-04T10:03:38.589Z,0.072
2023-07-04T10:05:38.540Z,0.072
2023-07-04T10:07:38.576Z,0.071
2023-07-04T10:09:38.494Z,0.070
2023-07-04T10:11:38.530Z,0.069
2023-07-04T10:13:38.604Z,0.069
2023-07-04T10:15:44.084Z,0.068
2023-07-04T10:18:38.544Z,0.064
2023-07-04T10:19:42.715Z,0.064
2023-07-04T10:22:38.470Z,0.063
2023-07-04T10:24:40.660Z,0.063
2023-07-04T10:26:38.533Z,0.064
2023-07-04T10:28:38.506Z,0.067
2023-07-04T10:30:47.206Z,0.068
2023-07-04T10:32:38.594Z,0.067
2023-07-04T10:34:38.445Z,0.067
2023-07-04T10:36:38.614Z,0.066
2023-07-04T10:38:38.647Z,0.066
2023-07-04T10:40:38.594Z,0.067
2023-07-04T10:42:38.699Z,0.069
2023-07-04T10:44:38.641Z,0.072
2023-07-04T10:46:38.631Z,0.073
2023-07-04T10:48:38.609Z,0.074
2023-07-04T10:50:38.630Z,0.074
2023-07-04T10:52:38.608Z,0.073
2023-07-04T10:54:38.617Z,0.075
2023-07-04T10:56:38.533Z,0.074
2023-07-04T10:58:38.547Z,0.076
2023-07-04T11:00:38.508Z,0.076
2023-07-04T11:02:38.799Z,0.075
2023-07-04T11:04:40.220Z,0.073
2023-07-04T11:06:38.626Z,0.070
2023-07-04T11:08:38.499Z,0.070
2023-07-04T11:10:38.574Z,0.069
2023-07-04T11:12:38.817Z,0.070
2023-07-04T11:14:38.701Z,0.068
2023-07-04T11:16:40.745Z,0.067
2023-07-04T11:18:38.582Z,0.068
2023-07-04T11:20:38.759Z,0.066
2023-07-04T11:22:40.279Z,0.069
2023-07-04T11:24:38.591Z,0.069
2023-07-04T11:26:38.573Z,0.069
2023-07-04T11:28:38.623Z,0.066
2023-07-04T11:30:38.634Z,0.067
2023-07-04T11:32:38.775Z,0.069
2023-07-04T11:34:38.596Z,0.068
2023-07-04T11:36:38.545Z,0.071
2023-07-04T11:38:38.525Z,0.071
2023-07-04T11:40:38.597Z,0.068
2023-07-04T11:42:38.600Z,0.068
2023-07-04T11:44:40.239Z,0.067
2023-07-04T11:46:38.776Z,0.068
2023-07-04T11:48:38.690Z,0.067
2023-07-04T11:50:38.757Z,0.067
2023-07-04T11:52:38.781Z,0.069
2023-07-04T11:54:38.696Z,0.069
2023-07-04T11:56:38.709Z,0.069
2023-07-04T11:58:38.685Z,0.068
2023-07-04T12:00:38.720Z,0.066
2023-07-04T12:02:38.872Z,0.067
2023-07-04T12:04:41.541Z,0.067
2023-07-04T12:06:38.873Z,0.066
2023-07-04T12:08:38.614Z,0.068
2023-07-04T12:10:38.690Z,0.068
2023-07-04T12:12:38.755Z,0.070
2023-07-04T12:14:43.779Z,0.071
2023-07-04T12:16:39.039Z,0.073
2023-07-04T12:18:38.698Z,0.074
2023-07-04T12:20:41.041Z,0.076
2023-07-04T12:22:38.977Z,0.073
2023-07-04T12:24:38.717Z,0.074
2023-07-04T12:26:38.655Z,0.074
2023-07-04T12:28:38.832Z,0.074
2023-07-04T12:30:39.179Z,0.075
2023-07-04T12:32:38.747Z,0.074
2023-07-04T12:36:38.779Z,0.075
2023-07-04T12:42:38.834Z,0.073
2023-07-04T12:50:58.020Z,0.073
2023-07-04T12:52:57.902Z,0.072
2023-07-04T12:54:57.947Z,0.073
2023-07-04T12:56:57.925Z,0.074
2023-07-04T12:58:59.417Z,0.073
2023-07-04T13:01:00.447Z,0.073
2023-07-04T13:03:02.925Z,0.073
2023-07-04T13:04:57.922Z,0.074
2023-07-04T13:06:57.941Z,0.075
2023-07-04T13:08:57.955Z,0.073
2023-07-04T13:10:58.300Z,0.073
2023-07-04T13:12:58.164Z,0.072
2023-07-04T13:14:57.920Z,0.072
2023-07-04T13:16:58.134Z,0.071
2023-07-04T13:18:57.978Z,0.072
2023-07-04T13:20:57.956Z,0.070
2023-07-04T13:25:27.871Z,0.072
2023-07-04T13:27:12.592Z,0.073
2023-07-04T13:30:22.612Z,0.074
2023-07-04T13:33:00.720Z,0.074
2023-07-04T13:34:58.049Z,0.074
2023-07-04T13:36:58.006Z,0.075
2023-07-04T13:40:58.583Z,0.076
2023-07-04T13:45:11.575Z,0.076
2023-07-04T13:46:57.927Z,0.076
2023-07-04T13:48:57.976Z,0.073
2023-07-04T13:50:57.948Z,0.073
2023-07-04T13:53:12.825Z,0.073
2023-07-04T13:54:58.026Z,0.070
2023-07-04T13:56:57.964Z,0.067
2023-07-04T13:58:57.955Z,0.067
2023-07-04T14:05:40.375Z,0.065
2023-07-04T14:06:58.056Z,0.065
2023-07-04T14:08:58.030Z,0.065
2023-07-04T14:10:59.232Z,0.065
2023-07-04T14:12:58.027Z,0.063
2023-07-04T14:17:29.144Z,0.067
2023-07-04T14:21:01.356Z,0.068
2023-07-04T14:22:58.167Z,0.069
2023-07-04T14:24:58.033Z,0.070
2023-07-04T14:26:58.092Z,0.069
2023-07-04T14:28:58.080Z,0.068
2023-07-04T14:30:58.571Z,0.069
2023-07-04T14:33:00.163Z,0.065
2023-07-04T14:34:58.073Z,0.065
2023-07-04T14:37:02.884Z,0.061
2023-07-04T14:39:01.032Z,0.060
2023-07-04T14:42:58.074Z,0.062
2023-07-04T14:44:57.985Z,0.065
2023-07-04T14:46:58.043Z,0.064
2023-07-04T14:48:58.191Z,0.065
2023-07-04T14:50:58.123Z,0.066
2023-07-04T14:52:57.967Z,0.066
2023-07-04T14:54:57.973Z,0.068
2023-07-04T14:56:57.986Z,0.071
2023-07-04T14:59:02.938Z,0.072
2023-07-04T15:00:58.418Z,0.072
2023-07-04T15:02:58.076Z,0.072
2023-07-04T15:04:58.082Z,0.072
2023-07-04T15:06:58.423Z,0.073
2023-07-04T15:08:58.059Z,0.074
2023-07-04T15:10:58.103Z,0.074
2023-07-04T15:12:58.175Z,0.075
2023-07-04T15:14:57.981Z,0.075
2023-07-04T15:16:58.378Z,0.072
2023-07-04T15:18:58.103Z,0.072
2023-07-04T15:20:58.044Z,0.069
2023-07-04T15:22:58.028Z,0.069
2023-07-04T15:24:58.043Z,0.068
2023-07-04T15:26:58.033Z,0.068
2023-07-04T15:29:02.921Z,0.069
2023-07-04T15:30:58.289Z,0.069
2023-07-04T15:32:58.290Z,0.069
2023-07-04T15:35:58.285Z,0.070
2023-07-04T15:37:58.297Z,0.070
2023-07-04T15:39:58.154Z,0.071
2023-07-04T15:41:58.150Z,0.071
2023-07-04T15:43:58.327Z,0.070
2023-07-04T15:45:58.267Z,0.068
2023-07-04T15:47:58.308Z,0.069
2023-07-04T15:49:58.255Z,0.068
2023-07-04T15:51:58.298Z,0.067
2023-07-04T15:53:58.163Z,0.070
2023-07-04T15:55:58.189Z,0.068
2023-07-04T15:57:58.248Z,0.069
2023-07-04T16:00:03.042Z,0.066
2023-07-04T16:01:58.216Z,0.068
2023-07-04T16:03:58.372Z,0.070
2023-07-04T16:05:58.273Z,0.070
2023-07-04T16:07:58.176Z,0.072
2023-07-04T16:09:58.277Z,0.075
2023-07-04T16:11:58.351Z,0.073
2023-07-04T16:13:58.446Z,0.075
2023-07-04T16:15:58.395Z,0.076
2023-07-04T16:17:58.385Z,0.074
2023-07-04T16:20:00.786Z,0.076
2023-07-04T16:21:58.066Z,0.077
2023-07-04T16:23:58.607Z,0.078
2023-07-04T16:25:58.201Z,0.077
2023-07-04T16:27:58.116Z,0.077
2023-07-04T16:29:58.321Z,0.074
2023-07-04T16:31:58.877Z,0.076
2023-07-04T16:34:02.318Z,0.077
2023-07-04T16:35:58.321Z,0.075
2023-07-04T16:37:58.186Z,0.075
2023-07-04T16:39:58.494Z,0.077
2023-07-04T16:41:58.125Z,0.076
2023-07-04T16:43:58.140Z,0.075
2023-07-04T16:45:58.990Z,0.076
2023-07-04T16:47:58.462Z,0.077
2023-07-04T16:49:58.459Z,0.080
2023-07-04T16:51:58.262Z,0.080
2023-07-04T16:53:59.684Z,0.077
2023-07-04T16:55:58.176Z,0.078
2023-07-04T16:57:58.234Z,0.079
2023-07-04T16:59:58.274Z,0.081
2023-07-04T17:02:00.784Z,0.081
2023-07-04T17:03:58.270Z,0.079
2023-07-04T17:06:03.854Z,0.076
2023-07-04T17:08:00.252Z,0.074
2023-07-04T17:09:58.302Z,0.071
2023-07-04T17:11:58.362Z,0.041
2023-07-04T17:13:58.342Z,0.073
2023-07-04T17:16:07.002Z,0.078
2023-07-04T17:17:58.298Z,0.063
2023-07-04T17:19:58.395Z,0.059
2023-07-04T17:21:58.165Z,0.064
2023-07-04T17:23:58.165Z,0.069
2023-07-04T17:26:03.031Z,0.066
2023-07-04T17:27:58.196Z,0.114
2023-07-04T17:29:58.291Z,0.106
2023-07-04T17:31:58.552Z,0.088
2023-07-04T17:33:58.260Z,0.079
2023-07-04T17:35:58.671Z,0.081
2023-07-04T17:37:58.173Z,0.074
2023-07-04T17:39:58.681Z,0.079
2023-07-04T17:41:58.186Z,0.071
2023-07-04T17:44:01.290Z,0.068
2023-07-04T17:45:58.274Z,0.071
2023-07-04T17:47:58.234Z,0.072
2023-07-04T17:49:58.216Z,0.074
2023-07-04T17:51:58.442Z,0.072
2023-07-04T17:53:58.196Z,0.071
2023-07-04T17:55:58.221Z,0.072
2023-07-04T17:57:58.207Z,0.072
2023-07-04T17:59:58.296Z,0.074
2023-07-04T18:01:58.232Z,0.072
2023-07-04T18:03:58.390Z,0.074
2023-07-04T18:05:58.464Z,0.076
2023-07-04T18:07:58.204Z,0.076
2023-07-04T18:09:58.213Z,0.075
2023-07-04T18:11:58.365Z,0.075
2023-07-04T18:13:58.277Z,0.074
2023-07-04T18:15:58.219Z,0.074
2023-07-04T18:17:58.403Z,0.073
2023-07-04T18:19:59.496Z,0.072
2023-07-04T18:21:58.245Z,0.072
2023-07-04T18:23:58.289Z,0.072
2023-07-04T18:25:58.938Z,0.073
2023-07-04T18:27:58.189Z,0.072
2023-07-04T18:29:58.182Z,0.071
2023-07-04T18:31:58.367Z,0.070
2023-07-04T18:34:01.410Z,0.069
2023-07-04T18:35:58.303Z,0.069
2023-07-04T18:37:58.247Z,0.069
2023-07-04T18:39:58.256Z,0.067
2023-07-04T18:41:58.412Z,0.070
2023-07-04T18:43:58.186Z,0.073
2023-07-04T18:45:58.297Z,0.071
2023-07-04T18:47:58.462Z,0.068
2023-07-04T18:49:58.295Z,0.065
2023-07-04T18:51:58.509Z,0.065
2023-07-04T18:53:58.445Z,0.066
2023-07-04T18:55:59.717Z,0.066
2023-07-04T18:58:01.067Z,0.067
2023-07-04T19:00:01.323Z,0.068
2023-07-04T19:02:01.242Z,0.071
2023-07-04T19:03:58.655Z,0.071
2023-07-04T19:05:58.421Z,0.071
2023-07-04T19:07:58.469Z,0.072
2023-07-04T19:10:10.359Z,0.071
2023-07-04T19:11:58.545Z,0.071
2023-07-04T19:14:14.224Z,0.071
2023-07-04T19:16:14.173Z,0.074
2023-07-04T19:18:14.464Z,0.075
2023-07-04T19:20:17.110Z,0.078
2023-07-04T19:22:14.165Z,0.080
2023-07-04T19:24:14.282Z,0.079
2023-07-04T19:26:17.239Z,0.079
2023-07-04T19:28:14.208Z,0.079
2023-07-04T19:30:20.165Z,0.079
2023-07-04T19:32:14.284Z,0.080
2023-07-04T19:34:14.326Z,0.081
2023-07-04T19:36:20.132Z,0.081
2023-07-04T19:38:14.213Z,0.082
2023-07-04T19:40:28.432Z,0.082
2023-07-04T19:42:14.194Z,0.081
2023-07-04T19:44:14.408Z,0.079
2023-07-04T19:46:17.018Z,0.079
2023-07-04T19:48:21.446Z,0.080
2023-07-04T19:50:16.221Z,0.085
2023-07-04T19:52:14.198Z,0.086
2023-07-04T19:54:15.919Z,0.086
2023-07-04T19:56:14.216Z,0.087
2023-07-04T19:58:14.271Z,0.086
2023-07-04T20:00:23.045Z,0.083
2023-07-04T20:02:14.384Z,0.080
2023-07-04T20:04:23.057Z,0.080
2023-07-04T20:06:16.893Z,0.080
2023-07-04T20:08:28.631Z,0.078
2023-07-04T20:10:17.172Z,0.080
2023-07-04T20:12:14.347Z,0.082
2023-07-04T20:14:16.886Z,0.082
2023-07-04T20:16:17.000Z,0.079
2023-07-04T20:18:17.132Z,0.078
2023-07-04T20:20:17.193Z,0.074
2023-07-04T20:22:14.350Z,0.073
2023-07-04T20:24:24.500Z,0.074
2023-07-04T20:26:14.221Z,0.073
2023-07-04T20:28:16.894Z,0.074
2023-07-04T20:30:17.208Z,0.074
2023-07-04T20:32:20.332Z,0.075
2023-07-04T20:35:14.453Z,0.074
2023-07-04T20:37:14.239Z,0.072
2023-07-04T20:39:17.013Z,0.074
2023-07-04T20:41:14.222Z,0.073
2023-07-04T20:43:19.082Z,0.074
2023-07-04T20:45:14.304Z,0.075
2023-07-04T20:46:29.618Z,0.074
2023-07-04T20:49:14.257Z,0.075
2023-07-04T20:51:14.227Z,0.075
2023-07-04T20:53:19.096Z,0.075
2023-07-04T20:55:14.249Z,0.073
2023-07-04T20:57:14.377Z,0.071
2023-07-04T20:59:14.265Z,0.070
2023-07-04T21:01:14.237Z,0.072
2023-07-04T21:03:14.188Z,0.069
2023-07-04T21:05:17.193Z,0.068
2023-07-04T21:07:18.216Z,0.067
2023-07-04T21:09:14.358Z,0.069
2023-07-04T21:11:14.489Z,0.067
2023-07-04T21:13:14.259Z,0.064
2023-07-04T21:15:14.254Z,0.028
2023-07-04T21:17:14.292Z,0.061
2023-07-04T21:19:14.276Z,0.068
2023-07-04T21:21:14.248Z,0.067
2023-07-04T21:23:14.225Z,0.057
2023-07-04T21:25:14.419Z,0.059
2023-07-04T21:27:20.231Z,0.060
2023-07-04T21:29:17.114Z,0.065
2023-07-04T21:31:14.373Z,0.072
2023-07-04T21:33:14.254Z,0.071
2023-07-04T21:35:16.834Z,0.068
2023-07-04T21:37:14.246Z,0.068
2023-07-04T21:39:15.154Z,0.067
2023-07-04T21:41:16.869Z,0.071
2023-07-04T21:43:14.313Z,0.069
2023-07-04T21:45:14.247Z,0.068
2023-07-04T21:47:14.493Z,0.065
2023-07-04T21:49:14.249Z,0.066
2023-07-04T21:51:17.020Z,0.069
2023-07-04T21:53:17.065Z,0.068
2023-07-04T21:55:25.853Z,0.070
2023-07-04T21:57:14.304Z,0.070
2023-07-04T21:59:19.841Z,0.068
2023-07-04T22:01:16.484Z,0.068
2023-07-04T22:03:14.371Z,0.067
2023-07-04T22:05:16.742Z,0.065
2023-07-04T22:07:14.340Z,0.066
2023-07-04T22:09:17.442Z,0.065
2023-07-04T22:11:17.073Z,0.065
2023-07-04T22:13:17.307Z,0.065
2023-07-04T22:15:14.327Z,0.065
2023-07-04T22:17:14.407Z,0.065
2023-07-04T22:19:14.372Z,0.067
2023-07-04T22:21:28.590Z,0.066
2023-07-04T22:23:14.560Z,0.068
2023-07-04T22:25:14.327Z,0.067
2023-07-04T22:27:20.318Z,0.068
2023-07-04T22:29:14.422Z,0.067
2023-07-04T22:31:14.365Z,0.066
2023-07-04T22:33:17.826Z,0.066
2023-07-04T22:35:14.320Z,0.068
2023-07-04T22:37:14.318Z,0.067
2023-07-04T22:39:14.300Z,0.067
2023-07-04T22:41:14.894Z,0.064
2023-07-04T22:43:14.494Z,0.064
2023-07-04T22:45:14.383Z,0.062
2023-07-04T22:47:14.616Z,0.064
2023-07-04T22:49:23.862Z,0.064
2023-07-04T22:51:17.294Z,0.062
2023-07-04T22:53:14.286Z,0.062
2023-07-04T22:55:14.495Z,0.058
2023-07-04T22:57:14.292Z,0.060
2023-07-04T22:59:19.210Z,0.060
2023-07-04T23:01:14.536Z,0.059
2023-07-04T23:03:14.493Z,0.059
2023-07-04T23:05:17.134Z,0.060
2023-07-04T23:07:14.917Z,0.058
2023-07-04T23:09:14.314Z,0.059
2023-07-04T23:11:14.438Z,0.060
2023-07-04T23:13:17.072Z,0.060
2023-07-04T23:15:17.094Z,0.061
2023-07-04T23:17:14.533Z,0.061
2023-07-04T23:19:14.442Z,0.058
2023-07-04T23:21:15.797Z,0.059
2023-07-04T23:23:14.686Z,0.060
2023-07-04T23:25:28.605Z,0.060
2023-07-04T23:27:14.344Z,0.061
2023-07-04T23:29:14.653Z,0.060
2023-07-04T23:31:23.313Z,0.059
2023-07-04T23:33:19.300Z,0.061
2023-07-04T23:35:16.973Z,0.060
2023-07-04T23:37:15.408Z,0.063
2023-07-04T23:39:14.286Z,0.063
2023-07-04T23:41:14.383Z,0.064
2023-07-04T23:43:14.378Z,0.066
2023-07-04T23:45:14.344Z,0.069
2023-07-04T23:47:14.390Z,0.067
2023-07-04T23:49:14.367Z,0.068
2023-07-04T23:51:14.378Z,0.068
2023-07-04T23:53:14.467Z,0.069
2023-07-04T23:55:17.181Z,0.071
2023-07-04T23:57:17.292Z,0.070
2023-07-04T23:59:14.345Z,0.070
